Terminal Aerodrome Forecast
Issued by NWS

Home | Current Version | Previous Version | Text Only | Print | Product List | Glossary On
Versions: 1 2 3 4 5 6 7 8 9 10 11 12 13 14 15 16 17 18
000
FTUS42 KMHX 012000 AAA
TAFISO
TAF AMD
KISO 012017Z 0120/0218 11005KT 6SM -SHRA OVC008
     FM012200 10003KT P6SM VCSH SCT010 BKN025
     FM020100 07003KT P6SM SCT025 BKN035
     FM020700 00000KT 2SM BR VCSH BKN007 OVC025
     FM021300 13005KT 5SM -SHRA SCT007 OVC025
      AMD LTD TO CLD VIS AND WIND=

USA.gov is the U.S. government's official web portal to all federal, state and local government web resources and services.